createdAt,value
2023-05-16T00:00:15.915Z,13.71
2023-05-16T00:02:42.541Z,13.63
2023-05-16T00:05:11.399Z,13.59
2023-05-16T00:07:37.761Z,13.61
2023-05-16T00:10:04.497Z,13.46
2023-05-16T00:12:32.927Z,13.46
2023-05-16T00:14:59.471Z,13.39
2023-05-16T00:17:28.911Z,13.33
2023-05-16T00:19:58.333Z,13.36
2023-05-16T00:22:25.489Z,13.35
2023-05-16T00:24:51.982Z,13.21
2023-05-16T00:27:18.464Z,13.13
2023-05-16T00:29:44.943Z,13.08
2023-05-16T00:32:11.700Z,12.93
2023-05-16T00:34:38.332Z,13.04
2023-05-16T00:37:05.264Z,13.00
2023-05-16T00:39:32.139Z,12.98
2023-05-16T00:41:58.932Z,13.00
2023-05-16T00:44:25.466Z,13.01
2023-05-16T00:46:52.418Z,13.03
2023-05-16T00:49:18.797Z,13.00
2023-05-16T00:51:45.529Z,12.97
2023-05-16T00:54:12.168Z,12.95
2023-05-16T00:56:38.605Z,12.95
2023-05-16T00:59:05.338Z,12.96
2023-05-16T01:01:32.815Z,12.96
2023-05-16T01:04:00.870Z,12.93
2023-05-16T01:06:27.926Z,12.93
2023-05-16T01:08:54.407Z,12.94
2023-05-16T01:11:43.285Z,12.96
2023-05-16T01:14:29.409Z,12.88
2023-05-16T01:17:07.639Z,12.83
2023-05-16T01:19:52.742Z,12.85
2023-05-16T01:22:37.581Z,12.81
2023-05-16T01:25:45.890Z,12.73
2023-05-16T01:28:15.939Z,12.66
2023-05-16T01:30:42.278Z,12.54
2023-05-16T01:33:09.724Z,12.41
2023-05-16T01:35:47.366Z,12.35
2023-05-16T01:38:25.849Z,12.41
2023-05-16T01:41:13.117Z,12.45
2023-05-16T01:43:46.222Z,12.42
2023-05-16T01:46:14.992Z,12.43
2023-05-16T01:48:52.878Z,12.38
2023-05-16T01:51:22.668Z,12.30
2023-05-16T01:53:50.695Z,12.23
2023-05-16T01:56:18.210Z,12.29
2023-05-16T01:58:47.052Z,12.21
2023-05-16T02:01:13.588Z,12.10
2023-05-16T02:03:39.988Z,12.16
2023-05-16T02:06:06.549Z,12.04
2023-05-16T02:08:33.280Z,12.04
2023-05-16T02:10:59.622Z,11.98
2023-05-16T02:13:26.024Z,11.90
2023-05-16T02:15:53.022Z,11.76
2023-05-16T02:18:19.435Z,11.82
2023-05-16T02:20:45.807Z,11.80
2023-05-16T02:23:12.724Z,11.76
2023-05-16T02:25:39.208Z,11.74
2023-05-16T02:28:05.656Z,11.77
2023-05-16T02:30:32.156Z,11.71
2023-05-16T02:32:58.580Z,11.66
2023-05-16T02:35:25.161Z,11.61
2023-05-16T02:37:51.644Z,11.53
2023-05-16T02:40:18.204Z,11.48
2023-05-16T02:42:44.542Z,11.44
2023-05-16T02:45:11.205Z,11.36
2023-05-16T02:47:37.626Z,11.33
2023-05-16T02:50:04.456Z,11.34
2023-05-16T02:52:30.798Z,11.18
2023-05-16T02:55:10.028Z,11.18
2023-05-16T02:57:43.733Z,11.10
2023-05-16T03:00:11.650Z,11.10
2023-05-16T03:02:38.135Z,11.06
2023-05-16T03:05:06.143Z,11.05
2023-05-16T03:07:32.755Z,11.07
2023-05-16T03:09:59.088Z,11.02
2023-05-16T03:12:25.637Z,11.03
2023-05-16T03:14:52.301Z,10.85
2023-05-16T03:17:18.659Z,10.84
2023-05-16T03:19:44.959Z,10.83
2023-05-16T03:22:11.282Z,10.76
2023-05-16T03:24:38.020Z,10.83
2023-05-16T03:27:04.780Z,10.86
2023-05-16T03:29:31.399Z,10.85
2023-05-16T03:31:57.840Z,10.82
2023-05-16T03:34:24.657Z,10.85
2023-05-16T03:36:51.282Z,10.82
2023-05-16T03:39:17.775Z,10.96
2023-05-16T03:41:44.500Z,10.97
2023-05-16T03:44:11.106Z,10.98
2023-05-16T03:46:37.498Z,10.99
2023-05-16T03:49:04.384Z,10.93
2023-05-16T03:51:31.450Z,10.87
2023-05-16T03:53:57.909Z,10.97
2023-05-16T03:56:24.265Z,10.98
2023-05-16T03:58:50.735Z,11.03
2023-05-16T04:01:17.114Z,11.05
2023-05-16T04:03:43.459Z,11.09
2023-05-16T04:06:10.014Z,11.04
2023-05-16T04:08:36.448Z,11.00
2023-05-16T04:11:02.960Z,10.97
2023-05-16T04:13:29.535Z,10.80
2023-05-16T04:15:55.876Z,10.75
2023-05-16T04:18:22.217Z,10.75
2023-05-16T04:20:48.768Z,10.68
2023-05-16T04:23:15.089Z,10.74
2023-05-16T04:25:42.357Z,10.65
2023-05-16T04:28:09.046Z,10.69
2023-05-16T04:30:35.399Z,10.75
2023-05-16T04:33:01.927Z,10.70
2023-05-16T04:35:28.614Z,10.68
2023-05-16T04:37:55.879Z,10.55
2023-05-16T04:40:22.385Z,10.57
2023-05-16T04:42:48.866Z,10.56
2023-05-16T04:45:15.350Z,10.54
2023-05-16T04:47:42.275Z,10.60
2023-05-16T04:50:09.259Z,10.43
2023-05-16T04:52:35.775Z,10.40
2023-05-16T04:55:02.298Z,10.38
2023-05-16T04:57:28.844Z,10.44
2023-05-16T04:59:55.226Z,10.50
2023-05-16T05:02:21.664Z,10.39
2023-05-16T05:04:48.205Z,10.45
2023-05-16T05:07:14.604Z,10.41
2023-05-16T05:09:42.523Z,10.35
2023-05-16T05:12:09.471Z,10.39
2023-05-16T05:14:35.771Z,10.31
2023-05-16T05:17:02.127Z,10.32
2023-05-16T05:19:28.748Z,10.22
2023-05-16T05:21:55.380Z,10.23
2023-05-16T05:24:21.749Z,10.38
2023-05-16T05:26:48.259Z,10.48
2023-05-16T05:29:14.642Z,10.56
2023-05-16T05:31:41.252Z,10.65
2023-05-16T05:34:07.833Z,10.52
2023-05-16T05:36:34.309Z,10.29
2023-05-16T05:39:01.780Z,10.12
2023-05-16T05:41:28.334Z,10.20
2023-05-16T05:43:54.766Z,10.24
2023-05-16T05:46:21.368Z,10.18
2023-05-16T05:48:48.087Z,10.05
2023-05-16T05:51:14.528Z,10.08
2023-05-16T05:53:41.594Z,10.21
2023-05-16T05:56:08.075Z,10.20
2023-05-16T05:58:34.606Z,10.21
2023-05-16T06:01:01.013Z,10.30
2023-05-16T06:03:27.427Z,10.18
2023-05-16T06:05:53.828Z,10.21
2023-05-16T06:08:20.199Z,10.21
2023-05-16T06:10:47.723Z,10.26
2023-05-16T06:13:14.082Z,10.34
2023-05-16T06:15:40.703Z,10.48
2023-05-16T06:18:07.284Z,10.48
2023-05-16T06:20:33.695Z,10.63
2023-05-16T06:23:00.056Z,10.80
2023-05-16T06:25:26.741Z,10.64
2023-05-16T06:27:53.460Z,10.71
2023-05-16T06:30:19.867Z,10.89
2023-05-16T06:32:46.420Z,11.02
2023-05-16T06:35:12.779Z,11.12
2023-05-16T06:37:41.092Z,11.15
2023-05-16T06:40:09.393Z,11.18
2023-05-16T06:42:35.747Z,11.23
2023-05-16T06:45:02.208Z,11.26
2023-05-16T06:47:28.872Z,11.24
2023-05-16T06:49:55.348Z,11.22
2023-05-16T06:52:22.052Z,11.14
2023-05-16T06:54:48.684Z,11.27
2023-05-16T06:57:15.180Z,11.24
2023-05-16T06:59:41.635Z,10.98
2023-05-16T07:02:08.181Z,10.83
2023-05-16T07:04:36.539Z,11.03
2023-05-16T07:07:02.983Z,11.07
2023-05-16T07:09:29.455Z,11.16
2023-05-16T07:11:55.919Z,11.26
2023-05-16T07:14:22.382Z,11.15
2023-05-16T07:16:49.138Z,11.32
2023-05-16T07:19:15.602Z,11.30
2023-05-16T07:21:42.228Z,11.49
2023-05-16T07:24:08.671Z,11.70
2023-05-16T07:26:35.043Z,11.92
2023-05-16T07:29:02.835Z,11.79
2023-05-16T07:31:29.426Z,11.92
2023-05-16T07:33:55.790Z,11.88
2023-05-16T07:36:22.538Z,12.03
2023-05-16T07:38:49.028Z,12.09
2023-05-16T07:41:15.525Z,12.13
2023-05-16T07:43:41.937Z,12.20
2023-05-16T07:46:08.550Z,12.31
2023-05-16T07:48:35.008Z,12.58
2023-05-16T07:51:01.434Z,12.45
2023-05-16T07:53:27.972Z,12.34
2023-05-16T07:55:54.325Z,12.27
2023-05-16T07:58:20.755Z,12.01
2023-05-16T08:00:47.471Z,12.19
2023-05-16T08:03:14.068Z,12.17
2023-05-16T08:05:40.653Z,11.96
2023-05-16T08:08:07.170Z,12.13
2023-05-16T08:10:33.647Z,12.35
2023-05-16T08:13:00.060Z,12.40
2023-05-16T08:15:27.976Z,12.42
2023-05-16T08:17:59.016Z,12.66
2023-05-16T08:20:26.152Z,12.65
2023-05-16T08:22:52.715Z,12.99
2023-05-16T08:25:19.271Z,13.13
2023-05-16T08:27:46.887Z,13.28
2023-05-16T08:30:14.357Z,13.26
2023-05-16T08:32:40.991Z,13.45
2023-05-16T08:35:07.933Z,13.12
2023-05-16T08:37:35.077Z,12.93
2023-05-16T08:40:01.532Z,12.92
2023-05-16T08:42:27.966Z,12.74
2023-05-16T08:44:54.907Z,12.86
2023-05-16T08:47:24.839Z,12.71
2023-05-16T08:49:52.273Z,12.94
2023-05-16T08:52:20.835Z,13.22
2023-05-16T08:54:55.277Z,13.47
2023-05-16T08:57:33.942Z,13.36
2023-05-16T09:00:00.818Z,13.69
2023-05-16T09:02:28.863Z,13.73
2023-05-16T09:04:57.385Z,14.13
2023-05-16T09:07:23.831Z,14.47
2023-05-16T09:09:50.383Z,14.38
2023-05-16T09:12:16.791Z,14.52
2023-05-16T09:14:43.590Z,14.75
2023-05-16T09:17:12.779Z,14.85
2023-05-16T09:19:40.879Z,15.02
2023-05-16T09:22:10.199Z,15.04
2023-05-16T09:24:44.385Z,15.11
2023-05-16T09:27:16.228Z,14.72
2023-05-16T09:29:44.482Z,14.82
2023-05-16T09:32:12.965Z,14.65
2023-05-16T09:34:43.483Z,14.84
2023-05-16T09:37:13.599Z,15.18
2023-05-16T09:40:07.209Z,15.20
2023-05-16T09:42:33.604Z,15.01
2023-05-16T09:45:01.595Z,15.32
2023-05-16T09:47:28.847Z,15.30
2023-05-16T09:49:56.488Z,15.12
2023-05-16T09:52:26.534Z,14.88
2023-05-16T09:54:54.743Z,14.62
2023-05-16T09:57:21.982Z,14.33
2023-05-16T09:59:48.504Z,14.16
2023-05-16T10:02:16.301Z,14.54
2023-05-16T10:04:42.865Z,14.73
2023-05-16T10:07:10.098Z,14.52
2023-05-16T10:09:39.435Z,14.54
2023-05-16T10:12:08.552Z,14.59
2023-05-16T10:14:41.211Z,14.62
2023-05-16T10:17:11.267Z,14.54
2023-05-16T10:19:39.397Z,14.52
2023-05-16T10:22:07.476Z,14.48
2023-05-16T10:25:12.705Z,14.37
2023-05-16T10:27:40.253Z,14.61
2023-05-16T10:30:08.273Z,15.04
2023-05-16T10:32:35.416Z,15.15
2023-05-16T10:35:03.623Z,14.98
2023-05-16T10:37:31.866Z,14.99
2023-05-16T10:40:01.207Z,15.18
2023-05-16T10:42:27.754Z,15.39
2023-05-16T10:45:04.818Z,15.59
2023-05-16T10:47:32.921Z,15.82
2023-05-16T10:49:59.380Z,15.80
2023-05-16T10:52:34.089Z,15.62
2023-05-16T10:55:03.729Z,15.37
2023-05-16T10:57:33.277Z,15.51
2023-05-16T11:00:01.697Z,15.74
2023-05-16T11:02:33.842Z,15.76
2023-05-16T11:05:02.673Z,15.59
2023-05-16T11:07:37.033Z,15.52
2023-05-16T11:10:09.005Z,15.44
2023-05-16T11:12:48.054Z,15.31
2023-05-16T11:15:20.334Z,15.33
2023-05-16T11:17:47.122Z,15.34
2023-05-16T11:20:30.237Z,15.46
2023-05-16T11:23:16.625Z,15.60
2023-05-16T11:25:45.824Z,15.54
2023-05-16T11:28:14.384Z,15.46
2023-05-16T11:30:45.783Z,15.41
2023-05-16T11:33:13.404Z,15.76
2023-05-16T11:35:40.066Z,16.05
2023-05-16T11:38:06.611Z,16.03
2023-05-16T11:40:33.070Z,15.97
2023-05-16T11:43:03.835Z,15.92
2023-05-16T11:45:31.705Z,15.86
2023-05-16T11:48:04.978Z,15.63
2023-05-16T11:50:34.311Z,15.46
2023-05-16T11:53:01.584Z,15.39
2023-05-16T11:55:41.265Z,15.31
2023-05-16T11:58:09.539Z,15.29
2023-05-16T12:00:36.562Z,15.25
2023-05-16T12:03:04.579Z,15.34
2023-05-16T12:05:33.004Z,15.49
2023-05-16T12:07:59.933Z,15.43
2023-05-16T12:10:27.025Z,15.42
2023-05-16T12:12:54.662Z,15.49
2023-05-16T12:15:21.595Z,15.62
2023-05-16T12:17:48.626Z,15.77
2023-05-16T12:20:16.303Z,15.82
2023-05-16T12:22:46.611Z,15.94
2023-05-16T12:25:32.179Z,15.91
2023-05-16T12:28:03.443Z,15.90
2023-05-16T12:30:32.462Z,16.10
2023-05-16T12:33:07.709Z,16.23
2023-05-16T12:35:35.363Z,16.40
2023-05-16T12:38:06.022Z,16.52
2023-05-16T12:40:32.549Z,16.56
2023-05-16T12:42:59.797Z,16.53
2023-05-16T12:45:29.218Z,16.56
2023-05-16T12:47:55.914Z,16.46
2023-05-16T12:50:23.092Z,16.13
2023-05-16T12:52:51.515Z,15.82
2023-05-16T12:55:19.522Z,15.75
2023-05-16T12:57:49.854Z,15.75
2023-05-16T13:00:19.034Z,15.47
2023-05-16T13:02:46.493Z,15.36
2023-05-16T13:05:13.453Z,15.37
2023-05-16T13:07:40.869Z,15.42
2023-05-16T13:10:12.034Z,15.58
2023-05-16T13:12:39.890Z,15.83
2023-05-16T13:15:07.865Z,15.94
2023-05-16T13:17:38.915Z,15.90
2023-05-16T13:20:10.120Z,15.89
2023-05-16T13:22:37.289Z,15.87
2023-05-16T13:25:07.170Z,15.83
2023-05-16T13:27:34.057Z,15.86
2023-05-16T13:30:00.834Z,15.79
2023-05-16T13:32:27.461Z,15.95
2023-05-16T13:34:54.377Z,16.13
2023-05-16T13:37:20.859Z,16.19
2023-05-16T13:39:47.274Z,16.17
2023-05-16T13:42:13.748Z,16.19
2023-05-16T13:44:40.208Z,16.31
2023-05-16T13:47:06.849Z,16.44
2023-05-16T13:49:33.264Z,16.22
2023-05-16T13:52:01.442Z,16.32
2023-05-16T13:54:28.006Z,16.54
2023-05-16T13:56:54.422Z,16.73
2023-05-16T13:59:37.658Z,16.89
2023-05-16T14:02:07.550Z,16.90
2023-05-16T14:04:34.032Z,16.83
2023-05-16T14:07:00.430Z,16.61
2023-05-16T14:09:26.887Z,16.45
2023-05-16T14:11:53.301Z,16.56
2023-05-16T14:14:19.689Z,16.73
2023-05-16T14:16:46.613Z,16.91
2023-05-16T14:19:15.341Z,17.04
2023-05-16T14:21:43.126Z,17.15
2023-05-16T14:24:09.741Z,17.15
2023-05-16T14:26:36.200Z,17.08
2023-05-16T14:29:02.621Z,17.05
2023-05-16T14:31:29.947Z,17.10
2023-05-16T14:33:56.421Z,17.27
2023-05-16T14:36:22.858Z,17.30
2023-05-16T14:38:49.325Z,17.21
2023-05-16T14:41:16.317Z,17.03
2023-05-16T14:43:42.723Z,16.88
2023-05-16T14:46:09.299Z,16.72
2023-05-16T14:48:35.850Z,16.51
2023-05-16T14:51:02.264Z,16.42
2023-05-16T14:53:28.758Z,16.44
2023-05-16T14:55:55.135Z,16.34
2023-05-16T14:58:21.708Z,16.31
2023-05-16T15:00:48.151Z,16.17
2023-05-16T15:03:19.276Z,16.38
2023-05-16T15:05:45.876Z,16.56
2023-05-16T15:08:12.324Z,16.76
2023-05-16T15:10:38.858Z,17.01
2023-05-16T15:13:05.339Z,17.24
2023-05-16T15:15:32.978Z,17.03
2023-05-16T15:17:59.438Z,16.99
2023-05-16T15:20:26.388Z,16.76
2023-05-16T15:22:53.136Z,16.54
2023-05-16T15:25:19.650Z,16.53
2023-05-16T15:27:46.042Z,16.50
2023-05-16T15:30:12.820Z,16.43
2023-05-16T15:32:39.279Z,16.35
2023-05-16T15:35:06.155Z,16.34
2023-05-16T15:37:32.834Z,16.16
2023-05-16T15:39:59.344Z,16.18
2023-05-16T15:42:25.786Z,16.19
2023-05-16T15:44:52.135Z,16.20
2023-05-16T15:47:18.630Z,16.14
2023-05-16T15:49:45.062Z,16.14
2023-05-16T15:52:11.538Z,16.14
2023-05-16T15:54:38.063Z,16.18
2023-05-16T15:57:04.751Z,16.27
2023-05-16T15:59:31.242Z,16.35
2023-05-16T16:01:57.778Z,16.36
2023-05-16T16:04:24.221Z,16.34
2023-05-16T16:06:50.722Z,16.16
2023-05-16T16:09:17.484Z,16.22
2023-05-16T16:11:43.988Z,16.20
2023-05-16T16:14:11.212Z,16.03
2023-05-16T16:16:40.403Z,15.81
2023-05-16T16:19:07.866Z,15.74
2023-05-16T16:21:34.601Z,15.69
2023-05-16T16:24:01.287Z,15.63
2023-05-16T16:26:27.686Z,15.56
2023-05-16T16:28:54.214Z,15.43
2023-05-16T16:31:20.814Z,15.45
2023-05-16T16:33:49.100Z,15.39
2023-05-16T16:36:16.837Z,15.23
2023-05-16T16:38:43.366Z,15.29
2023-05-16T16:41:09.977Z,15.35
2023-05-16T16:43:39.871Z,15.37
2023-05-16T16:46:07.501Z,15.35
2023-05-16T16:48:34.652Z,15.43
2023-05-16T16:51:01.978Z,15.50
2023-05-16T16:53:28.547Z,15.56
2023-05-16T16:55:55.009Z,15.46
2023-05-16T16:58:21.931Z,15.48
2023-05-16T17:00:48.553Z,15.44
2023-05-16T17:03:15.073Z,15.34
2023-05-16T17:05:42.472Z,15.27
2023-05-16T17:08:08.988Z,15.29
2023-05-16T17:10:35.487Z,15.20
2023-05-16T17:13:09.972Z,15.13
2023-05-16T17:15:37.571Z,14.92
2023-05-16T17:18:07.492Z,14.89
2023-05-16T17:20:35.273Z,14.80
2023-05-16T17:23:02.463Z,14.82
2023-05-16T17:25:29.402Z,14.82
2023-05-16T17:27:56.270Z,14.81
2023-05-16T17:30:23.384Z,14.76
2023-05-16T17:32:49.857Z,14.80
2023-05-16T17:35:16.401Z,14.72
2023-05-16T17:37:42.967Z,14.65
2023-05-16T17:40:11.998Z,14.54
2023-05-16T17:42:38.529Z,14.43
2023-05-16T17:45:07.101Z,14.33
2023-05-16T17:47:33.594Z,14.19
2023-05-16T17:50:00.040Z,14.17
2023-05-16T17:52:26.727Z,14.20
2023-05-16T17:54:53.077Z,14.19
2023-05-16T17:57:19.828Z,14.23
2023-05-16T17:59:46.282Z,14.27
2023-05-16T18:02:15.454Z,14.22
2023-05-16T18:04:42.275Z,14.16
2023-05-16T18:07:08.697Z,14.15
2023-05-16T18:09:35.695Z,14.14
2023-05-16T18:12:02.281Z,14.12
2023-05-16T18:14:28.727Z,14.14
2023-05-16T18:16:55.188Z,14.16
2023-05-16T18:19:21.693Z,14.15
2023-05-16T18:21:48.204Z,14.17
2023-05-16T18:24:15.911Z,14.15
2023-05-16T18:26:44.370Z,14.04
2023-05-16T18:29:11.216Z,14.09
2023-05-16T18:31:40.618Z,14.07
2023-05-16T18:34:07.260Z,14.09
2023-05-16T18:36:33.696Z,14.05
2023-05-16T18:39:00.245Z,13.96
2023-05-16T18:41:27.271Z,13.92
2023-05-16T18:43:53.719Z,13.96
2023-05-16T18:46:20.538Z,13.97
2023-05-16T18:48:47.145Z,13.90
2023-05-16T18:51:13.582Z,13.82
2023-05-16T18:53:40.029Z,13.84
2023-05-16T18:56:06.681Z,13.89
2023-05-16T18:58:33.104Z,13.85
2023-05-16T19:00:59.561Z,13.83
2023-05-16T19:03:29.449Z,13.85
2023-05-16T19:05:56.066Z,13.79
2023-05-16T19:08:25.541Z,13.85
2023-05-16T19:10:54.197Z,13.86
2023-05-16T19:13:21.613Z,13.77
2023-05-16T19:15:48.069Z,13.80
2023-05-16T19:18:14.572Z,13.77
2023-05-16T19:20:42.171Z,13.78
2023-05-16T19:23:10.383Z,13.76
2023-05-16T19:25:36.772Z,13.79
2023-05-16T19:28:03.289Z,13.75
2023-05-16T19:30:29.898Z,13.69
2023-05-16T19:32:56.630Z,13.75
2023-05-16T19:35:23.300Z,13.71
2023-05-16T19:37:49.748Z,13.75
2023-05-16T19:40:17.384Z,13.77
2023-05-16T19:42:44.072Z,13.75
2023-05-16T19:45:10.887Z,13.66
2023-05-16T19:47:37.363Z,13.68
2023-05-16T19:50:04.194Z,13.69
2023-05-16T19:52:30.582Z,13.67
2023-05-16T19:54:57.036Z,13.61
2023-05-16T19:57:23.626Z,13.63
2023-05-16T19:59:50.003Z,13.72
2023-05-16T20:02:17.711Z,13.72
2023-05-16T20:04:45.538Z,13.63
2023-05-16T20:07:12.028Z,13.62
2023-05-16T20:09:38.612Z,13.66
2023-05-16T20:12:05.550Z,13.69
2023-05-16T20:14:31.999Z,13.64
2023-05-16T20:16:58.736Z,13.59
2023-05-16T20:19:25.402Z,13.60
2023-05-16T20:21:51.892Z,13.60
2023-05-16T20:24:18.373Z,13.61
2023-05-16T20:26:44.812Z,13.65
2023-05-16T20:29:11.288Z,13.65
2023-05-16T20:31:37.770Z,13.59
2023-05-16T20:34:04.409Z,13.55
2023-05-16T20:36:30.991Z,13.46
2023-05-16T20:38:57.419Z,13.51
2023-05-16T20:41:23.838Z,13.53
2023-05-16T20:43:51.006Z,13.46
2023-05-16T20:46:17.411Z,13.40
2023-05-16T20:48:43.886Z,13.38
2023-05-16T20:51:10.432Z,13.41
2023-05-16T20:53:36.773Z,13.43
2023-05-16T20:56:03.532Z,13.41
2023-05-16T20:58:29.979Z,13.36
2023-05-16T21:00:56.390Z,13.39
2023-05-16T21:03:22.918Z,13.30
2023-05-16T21:05:49.433Z,13.26
2023-05-16T21:08:15.789Z,13.19
2023-05-16T21:10:42.284Z,13.16
2023-05-16T21:13:08.651Z,13.20
2023-05-16T21:15:35.063Z,13.20
2023-05-16T21:18:01.682Z,13.15
2023-05-16T21:20:29.975Z,13.16
2023-05-16T21:22:56.391Z,13.14
2023-05-16T21:25:22.919Z,13.16
2023-05-16T21:27:49.345Z,13.10
2023-05-16T21:30:15.881Z,13.08
2023-05-16T21:32:42.319Z,13.02
2023-05-16T21:35:08.963Z,12.98
2023-05-16T21:37:35.499Z,12.94
2023-05-16T21:40:02.183Z,12.92
2023-05-16T21:42:28.582Z,12.85
2023-05-16T21:44:54.959Z,12.84
2023-05-16T21:47:21.602Z,12.82
2023-05-16T21:49:48.055Z,12.79
2023-05-16T21:52:14.493Z,12.74
2023-05-16T21:54:40.850Z,12.77
2023-05-16T21:57:07.300Z,12.72
2023-05-16T21:59:33.706Z,12.59
2023-05-16T22:02:00.151Z,12.62
2023-05-16T22:04:26.974Z,12.59
2023-05-16T22:06:53.493Z,12.53
2023-05-16T22:09:19.894Z,12.47
2023-05-16T22:11:46.266Z,12.41
2023-05-16T22:14:12.782Z,12.40
2023-05-16T22:16:39.397Z,12.41
2023-05-16T22:19:06.642Z,12.37
2023-05-16T22:21:33.077Z,12.39
2023-05-16T22:23:59.528Z,12.36
2023-05-16T22:26:26.067Z,12.28
2023-05-16T22:28:53.298Z,12.24
2023-05-16T22:31:19.683Z,12.16
2023-05-16T22:33:46.159Z,12.16
2023-05-16T22:36:12.628Z,12.18
2023-05-16T22:38:39.053Z,12.06
2023-05-16T22:41:05.464Z,12.03
2023-05-16T22:43:31.969Z,12.02
2023-05-16T22:45:59.043Z,11.98
2023-05-16T22:48:26.689Z,11.92
2023-05-16T22:50:53.195Z,11.89
2023-05-16T22:53:19.552Z,11.81
2023-05-16T22:55:46.219Z,11.81
2023-05-16T22:58:12.694Z,11.79
2023-05-16T23:00:39.144Z,11.77
2023-05-16T23:03:06.216Z,11.77
2023-05-16T23:05:32.897Z,11.78
2023-05-16T23:07:59.334Z,11.67
2023-05-16T23:10:25.721Z,11.65
2023-05-16T23:12:52.193Z,11.64
2023-05-16T23:15:18.545Z,11.63
2023-05-16T23:17:45.004Z,11.63
2023-05-16T23:20:11.812Z,11.62
2023-05-16T23:22:38.196Z,11.46
2023-05-16T23:25:05.728Z,11.43
2023-05-16T23:27:32.186Z,11.39
2023-05-16T23:29:58.663Z,11.40
2023-05-16T23:32:25.110Z,11.44
2023-05-16T23:34:51.691Z,11.41
2023-05-16T23:37:18.090Z,11.37
2023-05-16T23:39:44.500Z,11.29
2023-05-16T23:42:11.016Z,11.28
2023-05-16T23:44:39.569Z,11.23
2023-05-16T23:47:06.458Z,11.24
2023-05-16T23:49:32.958Z,11.19
2023-05-16T23:51:59.459Z,11.16
2023-05-16T23:54:26.432Z,11.16
2023-05-16T23:56:53.055Z,11.18
2023-05-16T23:59:19.581Z,11.11
